Time;durP1;ratioP1;P1;durP2;ratioP2;P2;SDS_P1;SDS_P2;PMS_P1;PMS_P2;Temp;Humidity;BMP_temperature;BMP_pressure;BME280_temperature;BME280_humidity;BME280_pressure;Samples;Min_cycle;Max_cycle;Signal;HPM_P1;HPM_P2
2022/05/23 00:01:43;;;;;;;7.35;6.60;;;;;;;25.96;59.69;100386.44;5112677;28;20047;-75
2022/05/23 00:04:10;;;;;;;8.25;6.28;;;;;;;25.96;59.86;100391.88;5114375;28;20058;-75
2022/05/23 00:06:39;;;;;;;8.07;5.90;;;;;;;25.96;59.95;100391.88;5113593;28;20421;-75
2022/05/23 00:09:09;;;;;;;6.78;5.95;;;;;;;25.96;60.11;100378.31;5113570;28;20047;-75
2022/05/23 00:11:36;;;;;;;8.30;7.05;;;;;;;25.96;60.00;100379.16;5113948;28;20407;-75
2022/05/23 00:14:04;;;;;;;8.23;7.32;;;;;;;25.95;59.52;100369.34;5113653;28;20391;-75
2022/05/23 00:16:36;;;;;;;8.77;6.60;;;;;;;25.96;59.34;100373.72;5113938;28;20054;-75
2022/05/23 00:19:04;;;;;;;9.77;7.00;;;;;;;25.96;59.73;100372.88;5094251;28;20044;-74
2022/05/23 00:21:32;;;;;;;8.27;6.68;;;;;;;25.97;59.61;100374.56;5093521;28;20463;-76
2022/05/23 00:23:59;;;;;;;7.85;7.05;;;;;;;25.96;59.80;100384.56;5093933;28;20529;-75
2022/05/23 00:26:27;;;;;;;8.27;6.55;;;;;;;25.96;60.04;100381.88;5093448;28;20066;-75
2022/05/23 00:28:54;;;;;;;7.63;6.78;;;;;;;25.97;59.69;100377.28;5093028;28;20055;-75
2022/05/23 00:31:22;;;;;;;8.23;6.93;;;;;;;25.97;59.85;100382.69;5093361;28;20495;-75
2022/05/23 00:36:36;;;;;;;7.35;6.65;;;;;;;25.97;60.15;100383.56;5093436;28;20055;-75
2022/05/23 00:39:05;;;;;;;8.70;6.53;;;;;;;25.97;60.06;100380.00;5093480;28;20044;-75
2022/05/23 00:44:31;;;;;;;7.82;7.05;;;;;;;25.97;60.13;100380.84;5093142;28;20051;-75
2022/05/23 00:47:12;;;;;;;11.45;6.53;;;;;;;25.98;60.33;100390.66;5092965;28;20048;-75
2022/05/23 00:49:40;;;;;;;12.07;6.78;;;;;;;25.97;60.01;100388.13;5091306;28;20064;-74
2022/05/23 00:52:11;;;;;;;10.02;6.70;;;;;;;25.97;60.06;100382.69;5091679;28;20118;-75
2022/05/23 00:54:43;;;;;;;7.85;6.30;;;;;;;25.97;60.13;100383.56;5091542;28;20063;-75
2022/05/23 00:57:17;;;;;;;8.95;6.93;;;;;;;25.98;59.97;100389.84;5093473;28;20071;-75
2022/05/23 00:59:45;;;;;;;9.65;6.93;;;;;;;25.96;60.10;100384.56;5091723;28;20056;-75
2022/05/23 01:02:15;;;;;;;7.75;6.40;;;;;;;25.97;59.75;100393.56;5104072;28;20052;-75
2022/05/23 01:04:42;;;;;;;7.72;6.53;;;;;;;25.98;59.80;100393.38;5112523;28;20052;-75
2022/05/23 01:07:11;;;;;;;7.32;6.60;;;;;;;25.97;60.07;100393.56;5117332;28;20494;-75
2022/05/23 01:09:39;;;;;;;8.02;7.18;;;;;;;25.97;60.31;100389.00;5117449;28;20051;-75
2022/05/23 01:12:07;;;;;;;7.10;6.35;;;;;;;25.98;59.57;100395.25;5116359;27;20406;-75
2022/05/23 01:14:48;;;;;;;7.85;6.63;;;;;;;25.98;59.68;100400.69;5116205;28;20048;-75
2022/05/23 01:17:17;;;;;;;8.05;7.25;;;;;;;25.98;59.60;100401.53;5116230;27;20040;-75
2022/05/23 01:19:45;;;;;;;6.63;5.90;;;;;;;25.97;59.96;100405.28;5116212;28;20055;-75
2022/05/23 01:22:38;;;;;;;7.72;6.93;;;;;;;25.99;59.98;100405.06;5117034;28;20050;-75
2022/05/23 01:25:33;;;;;;;6.90;5.88;;;;;;;25.98;60.09;100401.53;5037877;28;20057;-75
2022/05/23 01:28:02;;;;;;;7.22;6.38;;;;;;;25.98;59.70;100398.81;5037528;28;20072;-75
2022/05/23 01:30:31;;;;;;;6.72;6.13;;;;;;;25.98;59.78;100404.22;5036869;28;20049;-75
2022/05/23 01:33:12;;;;;;;6.72;6.03;;;;;;;25.98;59.32;100406.09;5036721;28;20060;-75
2022/05/23 01:35:40;;;;;;;7.45;6.03;;;;;;;25.97;58.57;100402.56;5054188;28;20061;-75
2022/05/23 01:38:10;;;;;;;7.55;6.65;;;;;;;25.97;58.75;100405.28;5053478;28;20073;-75
2022/05/23 01:40:58;;;;;;;7.05;5.82;;;;;;;25.97;58.28;100407.97;5060832;28;20064;-75
2022/05/23 01:43:27;;;;;;;7.10;6.38;;;;;;;25.98;58.03;100406.94;5037885;28;20151;-75
2022/05/23 01:46:15;;;;;;;7.80;5.40;;;;;;;25.98;57.68;100412.38;4995078;28;20077;-75
2022/05/23 01:49:01;;;;;;;6.10;5.50;;;;;;;25.98;57.74;100403.41;4994308;28;20405;-75
2022/05/23 01:51:28;;;;;;;8.80;6.22;;;;;;;25.98;57.58;100406.09;4993733;28;20059;-75
2022/05/23 01:53:56;;;;;;;7.32;5.70;;;;;;;25.97;57.05;100394.41;4977561;28;20065;-75
2022/05/23 01:56:23;;;;;;;7.13;6.25;;;;;;;25.97;56.92;100399.84;4994676;28;20433;-75
2022/05/23 02:01:45;;;;;;;6.85;6.13;;;;;;;25.97;56.75;100405.28;5000440;28;20052;-75
2022/05/23 02:04:27;;;;;;;6.50;5.78;;;;;;;25.97;56.84;100396.25;5072545;28;20122;-75
2022/05/23 02:06:56;;;;;;;5.70;5.10;;;;;;;25.97;56.27;100389.00;5056382;28;20060;-75
2022/05/23 02:09:27;;;;;;;6.80;4.88;;;;;;;25.96;55.61;100387.28;5056359;28;20044;-75
2022/05/23 02:12:07;;;;;;;6.72;5.55;;;;;;;25.97;55.44;100385.41;5056432;28;20055;-75
2022/05/23 02:14:35;;;;;;;5.72;4.82;;;;;;;25.98;55.20;100384.41;5073220;28;20059;-75
2022/05/23 02:17:11;;;;;;;6.95;4.82;;;;;;;25.97;55.69;100383.56;5055137;28;20063;-75
2022/05/23 02:19:38;;;;;;;11.68;5.93;;;;;;;25.97;55.59;100383.56;5056628;28;20045;-75
2022/05/23 02:22:17;;;;;;;5.40;4.90;;;;;;;25.97;55.35;100383.56;5056794;28;20492;-75
2022/05/23 02:24:44;;;;;;;6.28;4.72;;;;;;;25.96;55.28;100383.75;5113616;28;20503;-75
2022/05/23 02:27:13;;;;;;;6.03;4.85;;;;;;;25.96;55.45;100381.88;5113837;28;20052;-76
2022/05/23 02:29:42;;;;;;;8.00;4.85;;;;;;;25.97;54.81;100385.41;5097498;28;20074;-75
2022/05/23 02:32:10;;;;;;;5.88;5.28;;;;;;;25.97;54.71;100385.41;5113889;28;20398;-75
2022/05/23 02:34:39;;;;;;;5.80;4.40;;;;;;;25.96;54.42;100379.16;5113662;28;20047;-75
2022/05/23 02:37:06;;;;;;;6.75;4.43;;;;;;;25.95;54.07;100382.91;5115289;28;20411;-75
2022/05/23 02:39:46;;;;;;;5.45;4.72;;;;;;;25.95;53.97;100372.06;5114400;28;20051;-75
2022/05/23 02:42:17;;;;;;;5.32;4.38;;;;;;;25.96;54.50;100376.44;5113561;28;20078;-75
2022/05/23 02:44:46;;;;;;;6.13;4.55;;;;;;;25.95;54.15;100372.06;5116073;28;20044;-75
2022/05/23 02:47:19;;;;;;;5.00;4.45;;;;;;;25.95;54.08;100380.19;5114602;28;20048;-75
2022/05/23 02:49:48;;;;;;;5.43;4.65;;;;;;;25.95;54.02;100388.31;5114675;28;20047;-75
2022/05/23 02:52:39;;;;;;;5.25;4.70;;;;;;;25.95;54.45;100384.78;5114725;28;20494;-75
2022/05/23 02:55:27;;;;;;;6.07;5.32;;;;;;;25.95;54.34;100384.78;5115113;28;20051;-75
2022/05/23 02:57:57;;;;;;;4.90;4.15;;;;;;;25.95;53.90;100373.94;5114382;28;20058;-75
2022/05/23 03:00:30;;;;;;;5.03;3.80;;;;;;;25.95;54.26;100384.78;5113767;28;20521;-75
2022/05/23 03:03:02;;;;;;;6.35;4.72;;;;;;;25.95;53.82;100382.91;5113063;28;20044;-75
2022/05/23 03:05:51;;;;;;;7.40;4.85;;;;;;;25.95;54.38;100373.94;5107070;28;20051;-75
2022/05/23 03:08:23;;;;;;;5.68;4.47;;;;;;;25.94;53.87;100374.97;5113361;28;20052;-75
2022/05/23 03:10:54;;;;;;;8.88;4.72;;;;;;;25.95;54.57;100384.78;5113772;28;20422;-75
2022/05/23 03:13:22;;;;;;;6.45;4.75;;;;;;;25.93;53.42;100379.53;5113274;28;20043;-75
2022/05/23 03:15:50;;;;;;;5.22;4.50;;;;;;;25.93;53.45;100376.84;5096740;28;20052;-75
2022/05/23 03:18:21;;;;;;;6.72;4.63;;;;;;;25.93;53.54;100379.53;5100227;28;20125;-75
2022/05/23 03:21:02;;;;;;;6.45;4.63;;;;;;;25.92;53.28;100383.25;5093545;28;20048;-75
2022/05/23 03:29:06;;;;;;;7.57;4.70;;;;;;;25.93;53.34;100395.81;5093733;28;20500;-75
2022/05/23 03:31:33;;;;;;;5.63;4.55;;;;;;;25.91;53.60;100395.16;5092738;28;20054;-75
2022/05/23 03:34:02;;;;;;;4.90;4.40;;;;;;;25.92;53.50;100391.41;5093199;28;20056;-75
2022/05/23 03:36:30;;;;;;;5.75;4.55;;;;;;;25.93;53.08;100393.09;5076324;28;20377;-75
2022/05/23 03:38:57;;;;;;;5.78;4.80;;;;;;;25.93;53.21;100395.81;5092718;28;20111;-75
2022/05/23 03:41:25;;;;;;;5.03;4.15;;;;;;;25.92;53.76;100395.97;5092975;28;20055;-75
2022/05/23 03:43:52;;;;;;;5.10;4.20;;;;;;;25.91;53.07;100388.88;5092028;28;20052;-75
2022/05/23 03:46:21;;;;;;;9.52;4.57;;;;;;;25.91;52.96;100389.72;5093062;28;20040;-75
2022/05/23 03:48:49;;;;;;;6.85;5.82;;;;;;;25.91;53.04;100381.59;5094087;28;20058;-75
2022/05/23 03:51:16;;;;;;;5.55;4.38;;;;;;;25.90;52.90;100377.19;5092072;28;20411;-75
2022/05/23 03:53:44;;;;;;;4.28;3.88;;;;;;;25.91;53.14;100375.31;5092394;28;20519;-75
2022/05/23 03:56:11;;;;;;;5.63;4.85;;;;;;;25.90;52.87;100388.03;5093300;28;20036;-75
2022/05/23 03:58:45;;;;;;;5.60;4.72;;;;;;;25.91;52.78;100392.44;5091481;28;20052;-75
2022/05/23 04:01:23;;;;;;;7.93;4.15;;;;;;;25.91;52.66;100383.47;5094859;28;20051;-75
2022/05/23 04:03:58;;;;;;;7.28;4.78;;;;;;;25.91;52.80;100389.72;5094993;28;20052;-75
2022/05/23 04:06:31;;;;;;;5.57;4.45;;;;;;;25.89;52.42;100384.50;5111777;27;20054;-75
2022/05/23 04:09:03;;;;;;;4.55;4.10;;;;;;;25.89;52.65;100386.38;5112554;28;20506;-75
2022/05/23 04:11:30;;;;;;;6.70;4.68;;;;;;;25.90;52.97;100393.47;5095560;28;20490;-75
2022/05/23 04:14:00;;;;;;;5.10;4.60;;;;;;;25.88;53.11;100388.22;5112568;28;20051;-75
2022/05/23 04:16:32;;;;;;;6.70;5.18;;;;;;;25.90;52.77;100396.19;5113104;28;20100;-75
2022/05/23 04:19:05;;;;;;;7.45;4.65;;;;;;;25.89;52.56;100392.63;5112982;28;20060;-75
2022/05/23 04:21:39;;;;;;;5.72;4.85;;;;;;;25.89;52.61;100397.22;5114010;28;20040;-75
2022/05/23 04:24:07;;;;;;;5.78;4.40;;;;;;;25.89;52.79;100398.06;5111938;28;20051;-75
2022/05/23 04:26:35;;;;;;;7.00;5.88;;;;;;;25.88;52.32;100398.22;5112343;28;20047;-75
2022/05/23 04:29:04;;;;;;;4.97;4.47;;;;;;;25.88;53.02;100401.78;5112596;28;20063;-75
2022/05/23 04:31:31;;;;;;;6.10;4.97;;;;;;;25.88;52.61;100396.34;5111942;28;20043;-75
2022/05/23 04:37:16;;;;;;;5.85;4.75;;;;;;;25.88;52.63;100396.34;5111954;28;20051;-75
2022/05/23 04:39:48;;;;;;;5.68;5.10;;;;;;;25.88;52.96;100395.50;5112517;28;20044;-74
2022/05/23 04:42:15;;;;;;;8.88;4.97;;;;;;;25.88;52.52;100398.22;5112779;28;20056;-75
2022/05/23 04:44:44;;;;;;;5.47;4.97;;;;;;;25.88;53.03;100395.50;5111876;28;20054;-75
2022/05/23 04:50:03;;;;;;;5.97;4.75;;;;;;;25.87;53.00;100394.66;5113079;28;20050;-75
2022/05/23 04:52:43;;;;;;;6.20;4.90;;;;;;;25.88;53.09;100395.50;5111438;28;20402;-75
2022/05/23 04:55:12;;;;;;;5.95;5.05;;;;;;;25.87;53.02;100394.66;5112147;28;20062;-75
2022/05/23 04:57:40;;;;;;;4.95;4.45;;;;;;;25.88;53.14;100403.66;5111558;28;20055;-75
2022/05/23 05:00:10;;;;;;;5.45;4.63;;;;;;;25.88;53.00;100395.50;5113105;28;20039;-75
2022/05/23 05:02:48;;;;;;;6.60;5.20;;;;;;;25.88;52.95;100400.94;5111564;28;20051;-75
2022/05/23 05:05:18;;;;;;;7.18;4.65;;;;;;;25.88;53.19;100392.81;5110922;28;20044;-75
2022/05/23 05:07:51;;;;;;;6.13;5.15;;;;;;;25.88;53.18;100395.50;5110097;28;20045;-74
2022/05/23 05:10:21;;;;;;;6.78;4.72;;;;;;;25.88;53.18;100400.94;5112247;28;20395;-75
2022/05/23 05:12:50;;;;;;;5.65;5.15;;;;;;;25.88;53.12;100396.34;5111673;28;20044;-75
2022/05/23 05:15:23;;;;;;;5.60;4.73;;;;;;;25.88;53.29;100392.81;5111802;28;20052;-75
2022/05/23 05:17:53;;;;;;;6.30;4.95;;;;;;;25.89;53.64;100394.50;5102569;28;20052;-75
2022/05/23 05:20:20;;;;;;;7.50;5.03;;;;;;;25.88;53.71;100395.50;5092589;28;20040;-75
2022/05/23 05:23:10;;;;;;;5.43;4.90;;;;;;;25.88;53.79;100392.81;5054980;28;20067;-75
2022/05/23 05:26:05;;;;;;;;;;;;;;;25.89;53.72;100384.50;5051088;28;20068;-75
2022/05/23 05:28:38;;;;;;;5.97;4.75;;;;;;;25.89;54.00;100383.66;5034872;28;19928;-75
2022/05/23 05:31:14;;;;;;;6.20;5.10;;;;;;;25.89;54.33;100378.22;5049889;28;20501;-75
2022/05/23 05:33:50;;;;;;;8.32;4.70;;;;;;;25.89;54.14;100380.94;5049484;28;20624;-74
2022/05/23 05:36:23;;;;;;;4.82;4.32;;;;;;;25.88;54.29;100380.06;5017519;28;20057;-75
2022/05/23 05:38:55;;;;;;;6.00;4.43;;;;;;;25.89;54.33;100384.50;5050599;28;20064;-75
2022/05/23 05:41:30;;;;;;;5.60;4.60;;;;;;;25.88;54.53;100374.66;5033309;28;20081;-75
2022/05/23 05:44:03;;;;;;;6.28;4.72;;;;;;;25.90;54.47;100382.63;5033216;28;20049;-75
2022/05/23 05:46:41;;;;;;;4.97;3.97;;;;;;;25.91;54.63;100378.03;5049379;28;20148;-75
2022/05/23 05:49:20;;;;;;;6.05;4.70;;;;;;;25.91;54.76;100378.88;5033248;28;20060;-75
2022/05/23 05:51:50;;;;;;;6.63;4.40;;;;;;;25.91;54.53;100378.03;5050254;28;20065;-75
2022/05/23 05:54:28;;;;;;;6.13;4.85;;;;;;;25.90;54.89;100377.19;5036785;28;20060;-75
2022/05/23 05:57:03;;;;;;;5.50;4.43;;;;;;;25.90;54.56;100371.78;5037086;28;20055;-75
2022/05/23 05:59:31;;;;;;;6.60;4.53;;;;;;;25.91;54.64;100372.63;5052908;28;20452;-75
2022/05/23 06:02:00;;;;;;;6.70;4.72;;;;;;;25.91;54.54;100365.31;5039757;28;20392;-75
2022/05/23 06:04:32;;;;;;;5.10;4.13;;;;;;;25.91;54.59;100369.91;5094885;28;20062;-75
2022/05/23 06:13:07;;;;;;;7.78;4.75;;;;;;;25.93;54.83;100363.28;5115229;28;20048;-77
2022/05/23 06:15:57;;;;;;;6.28;4.43;;;;;;;25.94;55.26;100369.53;5106196;28;20423;-75
2022/05/23 06:18:32;;;;;;;5.57;4.40;;;;;;;25.94;55.38;100370.38;5115470;27;20054;-75
2022/05/23 06:20:59;;;;;;;6.47;5.10;;;;;;;25.94;54.96;100372.25;5114918;28;20055;-74
2022/05/23 06:23:27;;;;;;;6.60;4.88;;;;;;;25.94;54.95;100364.94;5115261;28;20051;-75
2022/05/23 06:26:14;;;;;;;8.02;5.47;;;;;;;25.94;54.71;100373.09;5114978;27;20406;-75
2022/05/23 06:29:19;;;;;;;5.60;5.10;;;;;;;25.92;54.84;100374.28;5115270;27;20043;-75
2022/05/23 06:31:47;;;;;;;7.25;5.85;;;;;;;25.94;54.75;100372.25;5114706;28;20048;-75
2022/05/23 06:34:19;;;;;;;8.13;6.28;;;;;;;25.89;54.15;100365.50;5116439;27;20047;-75
2022/05/23 06:36:51;;;;;;;8.10;6.75;;;;;;;25.87;53.78;100367.56;5116076;28;20052;-79
2022/05/23 06:39:18;;;;;;;12.10;7.57;;;;;;;25.84;53.24;100358.94;5116553;27;20054;-78
2022/05/23 06:42:06;;;;;;;11.15;6.93;;;;;;;25.81;53.56;100372.91;5117604;28;20380;-77
2022/05/23 06:45:09;;;;;;;7.43;6.05;;;;;;;25.78;53.39;100365.13;5094913;28;20055;-78
2022/05/23 06:47:57;;;;;;;8.68;5.95;;;;;;;25.76;53.14;100365.25;5095069;28;20067;-78
2022/05/23 06:50:44;;;;;;;8.57;6.13;;;;;;;25.77;53.23;100360.72;5059323;28;20060;-78
2022/05/23 06:53:19;;;;;;;8.73;6.50;;;;;;;25.78;53.13;100360.53;5052440;28;20053;-76
2022/05/23 06:56:08;;;;;;;11.63;6.82;;;;;;;25.80;53.25;100357.63;5035795;28;20057;-75
2022/05/23 06:58:39;;;;;;;7.93;5.85;;;;;;;25.80;53.44;100361.19;5041342;28;20415;-77
2022/05/23 07:01:16;;;;;;;8.32;6.45;;;;;;;25.80;53.19;100354.91;5055780;28;20056;-76
2022/05/23 07:04:02;;;;;;;9.75;5.75;;;;;;;25.81;53.18;100351.22;5079165;28;20075;-76
2022/05/23 07:12:23;;;;;;;9.68;6.20;;;;;;;25.83;53.45;100341.84;5055408;28;20377;-76
2022/05/23 07:14:56;;;;;;;8.95;5.80;;;;;;;25.86;53.45;100356.91;5055098;28;20060;-76
2022/05/23 07:17:27;;;;;;;6.95;5.55;;;;;;;25.87;53.61;100355.88;5035194;28;20041;-76
2022/05/23 07:20:21;;;;;;;6.18;5.57;;;;;;;25.89;53.65;100372.81;5068648;28;20061;-76
2022/05/23 07:23:15;;;;;;;7.78;5.82;;;;;;;25.91;53.67;100378.88;5069950;28;20056;-76
2022/05/23 07:25:46;;;;;;;9.35;5.20;;;;;;;25.91;53.52;100378.88;5055781;28;20052;-75
2022/05/23 07:28:30;;;;;;;8.88;6.00;;;;;;;25.94;53.92;100380.38;5055595;28;20563;-75
2022/05/23 07:31:00;;;;;;;10.82;6.75;;;;;;;25.95;53.77;100385.63;5055707;28;20487;-76
2022/05/23 07:33:30;;;;;;;7.13;5.78;;;;;;;25.97;53.86;100389.00;5055386;28;20448;-75
2022/05/23 07:36:00;;;;;;;6.32;5.72;;;;;;;25.98;53.55;100377.09;5054383;28;20071;-75
2022/05/23 07:38:29;;;;;;;9.65;7.07;;;;;;;25.96;53.37;100370.19;5054955;28;20059;-75
2022/05/23 07:41:00;;;;;;;11.55;7.75;;;;;;;25.95;53.36;100376.63;5056273;28;20048;-75
2022/05/23 07:43:37;;;;;;;7.50;6.35;;;;;;;25.92;53.35;100372.41;5054997;28;20416;-75
2022/05/23 07:46:12;;;;;;;10.27;6.50;;;;;;;25.92;53.62;100372.41;5055374;28;20094;-76
2022/05/23 07:48:48;;;;;;;10.63;8.15;;;;;;;25.89;53.33;100370.94;5055990;28;20063;-75
2022/05/23 07:51:22;;;;;;;8.85;7.20;;;;;;;25.89;53.30;100367.38;5040099;28;20550;-75
2022/05/23 08:02:53;;;;;;;8.23;6.80;;;;;;;25.86;53.82;100359.63;5015079;28;20057;-74
2022/05/23 08:05:25;;;;;;;12.55;7.90;;;;;;;25.85;53.69;100366.91;5015474;28;20049;-74
2022/05/23 08:07:56;;;;;;;10.40;7.70;;;;;;;25.84;53.58;100367.91;5016224;28;20528;-74
2022/05/23 08:10:25;;;;;;;9.20;8.02;;;;;;;25.84;53.62;100372.50;5014684;28;20434;-74
2022/05/23 08:12:57;;;;;;;10.20;7.78;;;;;;;25.83;53.84;100365.41;5031286;28;20544;-74
2022/05/23 08:15:28;;;;;;;9.75;8.40;;;;;;;25.80;54.01;100361.19;5030620;28;20057;-73
2022/05/23 08:18:05;;;;;;;10.50;7.72;;;;;;;25.81;53.95;100370.19;5014319;28;20088;-74
2022/05/23 08:20:39;;;;;;;9.73;7.43;;;;;;;25.81;54.30;100375.59;5014435;28;20065;-74
2022/05/23 08:23:07;;;;;;;9.90;8.05;;;;;;;25.79;54.44;100359.50;5014613;28;20050;-74
2022/05/23 08:25:42;;;;;;;12.95;8.95;;;;;;;25.79;54.16;100364.09;5031257;28;20056;-74
2022/05/23 08:28:10;;;;;;;12.65;8.90;;;;;;;25.79;54.15;100369.50;5032037;28;20060;-74
2022/05/23 08:30:39;;;;;;;12.00;7.95;;;;;;;25.78;54.46;100357.00;5030993;28;20056;-74
2022/05/23 08:33:24;;;;;;;10.35;7.63;;;;;;;25.80;54.42;100354.91;5074031;28;20044;-74
2022/05/23 08:36:00;;;;;;;10.43;7.10;;;;;;;25.82;54.44;100358.31;5091634;28;20051;-75
2022/05/23 08:38:27;;;;;;;12.93;8.05;;;;;;;25.82;54.84;100353.72;5091770;28;20063;-74
2022/05/23 08:41:15;;;;;;;10.38;9.18;;;;;;;25.82;54.67;100353.72;5091699;28;20484;-74
2022/05/23 08:44:06;;;;;;;9.75;7.38;;;;;;;25.83;54.66;100357.28;5092083;28;20051;-73
2022/05/23 08:46:51;;;;;;;11.48;8.52;;;;;;;25.85;54.52;100355.22;5108616;28;20051;-74
2022/05/23 08:49:40;;;;;;;8.68;7.63;;;;;;;25.85;54.80;100349.81;5109083;28;20051;-74
2022/05/23 08:52:30;;;;;;;8.45;7.47;;;;;;;25.88;54.81;100344.81;5091150;28;20048;-73
2022/05/23 08:55:19;;;;;;;10.07;7.63;;;;;;;25.91;54.77;100346.31;5108740;28;20102;-74
2022/05/23 08:58:30;;;;;;;12.45;8.43;;;;;;;25.92;55.13;100341.75;5100708;28;20396;-74
2022/05/23 09:01:11;;;;;;;12.32;8.57;;;;;;;25.93;54.96;100344.28;5093200;28;20399;-74
2022/05/23 09:03:48;;;;;;;10.15;8.40;;;;;;;25.94;54.93;100343.25;5091100;28;20048;-74
2022/05/23 09:06:26;;;;;;;10.52;7.60;;;;;;;25.94;54.98;100334.28;5091277;28;20067;-75
2022/05/23 09:08:59;;;;;;;12.20;8.48;;;;;;;25.95;54.91;100331.38;5109097;28;20044;-74
2022/05/23 09:11:38;;;;;;;13.27;7.80;;;;;;;25.95;54.74;100328.66;5092050;28;20055;-73
2022/05/23 09:14:07;;;;;;;9.50;7.53;;;;;;;25.95;54.88;100331.38;5108486;28;20058;-74
2022/05/23 09:16:48;;;;;;;13.02;8.15;;;;;;;25.94;54.77;100329.69;5093088;28;20446;-73
2022/05/23 09:19:20;;;;;;;13.15;8.02;;;;;;;25.95;54.77;100320.53;5093089;28;20399;-74
2022/05/23 09:24:48;;;;;;;8.35;7.38;;;;;;;25.96;54.82;100310.50;5093141;28;20040;-74
2022/05/23 09:27:51;;;;;;;11.18;7.47;;;;;;;25.98;54.98;100312.00;5095308;28;20052;-74
2022/05/23 09:30:26;;;;;;;8.88;7.55;;;;;;;25.99;54.77;100313.69;5096178;28;20060;-74
2022/05/23 09:33:08;;;;;;;9.82;7.82;;;;;;;26.00;54.96;100307.22;5097114;28;20032;-74
2022/05/23 09:36:16;;;;;;;8.98;7.40;;;;;;;26.01;54.99;100316.19;5097014;28;20058;-74
2022/05/23 09:38:52;;;;;;;11.05;8.43;;;;;;;26.02;54.78;100309.78;5112116;28;20051;-74
2022/05/23 09:47:49;;;;;;;9.38;7.78;;;;;;;26.03;54.60;100306.03;5096661;28;20052;-74
2022/05/23 09:50:26;;;;;;;;;;;;;;;26.04;54.80;100300.41;5095694;28;20055;-74
2022/05/23 09:53:13;;;;;;;10.68;7.65;;;;;;;26.04;54.68;100305.81;5096535;28;19920;-73
2022/05/23 09:55:40;;;;;;;9.18;6.55;;;;;;;26.04;54.58;100303.09;5096826;28;20086;-74
2022/05/23 09:58:13;;;;;;;8.75;7.78;;;;;;;26.04;54.20;100303.09;5098606;28;20036;-74
2022/05/23 10:01:10;;;;;;;9.15;7.35;;;;;;;26.03;53.39;100301.44;5099323;28;20044;-73
2022/05/23 10:03:50;;;;;;;13.23;8.50;;;;;;;26.05;53.42;100299.38;5096792;28;20047;-74
2022/05/23 10:06:19;;;;;;;9.13;7.85;;;;;;;26.05;53.47;100296.66;5096705;28;20055;-74
2022/05/23 10:08:48;;;;;;;11.32;7.97;;;;;;;26.04;53.73;100289.53;5094695;28;20052;-73
2022/05/23 10:11:38;;;;;;;10.27;7.68;;;;;;;26.05;53.62;100296.66;5094370;28;20052;-74
2022/05/23 10:14:16;;;;;;;9.52;6.72;;;;;;;26.06;53.96;100286.66;5096121;28;20059;-74
2022/05/23 10:16:49;;;;;;;8.35;7.00;;;;;;;26.07;53.71;100288.34;5095027;28;20051;-73
2022/05/23 10:19:28;;;;;;;10.52;7.53;;;;;;;26.07;53.89;100286.47;5096537;28;20066;-74
2022/05/23 10:22:20;;;;;;;11.60;6.93;;;;;;;26.08;53.76;100279.16;5095936;28;20042;-74
2022/05/23 10:24:57;;;;;;;11.75;8.25;;;;;;;26.09;53.76;100267.25;5094909;28;20051;-74
2022/05/23 10:27:50;;;;;;;8.85;7.65;;;;;;;26.09;53.86;100268.13;5094342;28;20079;-74
2022/05/23 10:30:19;;;;;;;8.25;7.45;;;;;;;26.10;53.90;100263.56;5053437;28;20068;-73
2022/05/23 10:32:59;;;;;;;10.27;7.15;;;;;;;26.10;53.75;100261.66;5053341;28;20528;-74
2022/05/23 10:35:32;;;;;;;9.60;7.38;;;;;;;26.11;53.85;100257.91;5036252;28;20045;-74
2022/05/23 10:44:05;;;;;;;7.43;6.57;;;;;;;26.16;52.01;100257.34;5036828;28;20049;-74
2022/05/23 10:46:36;;;;;;;8.40;7.15;;;;;;;26.16;52.27;100254.63;5035758;28;20064;-74
2022/05/23 10:49:20;;;;;;;8.18;5.95;;;;;;;26.17;52.17;100259.06;5053502;28;20056;-75
2022/05/23 10:52:12;;;;;;;11.07;6.30;;;;;;;26.17;51.32;100250.03;5036252;28;20523;-74
2022/05/23 10:54:52;;;;;;;6.75;6.03;;;;;;;26.19;51.11;100237.16;5053389;28;20064;-75
2022/05/23 10:57:28;;;;;;;7.90;6.22;;;;;;;26.18;50.47;100236.31;5052658;28;20049;-74
2022/05/23 11:00:16;;;;;;;9.20;5.95;;;;;;;26.19;50.75;100242.56;5036175;28;20048;-75
2022/05/23 11:03:01;;;;;;;6.70;6.00;;;;;;;26.19;50.58;100242.56;5053605;28;20060;-75
2022/05/23 11:05:44;;;;;;;6.53;5.68;;;;;;;26.20;50.81;100245.06;5035666;28;20064;-75
2022/05/23 11:08:37;;;;;;;6.53;5.22;;;;;;;26.20;48.49;100236.94;5086772;28;20066;-75
2022/05/23 11:11:17;;;;;;;9.43;5.93;;;;;;;26.24;49.59;100238.22;5095230;28;20039;-75
2022/05/23 11:14:23;;;;;;;10.48;6.68;;;;;;;26.24;49.07;100229.25;5093885;28;20040;-75
2022/05/23 11:17:07;;;;;;;6.75;5.22;;;;;;;26.23;46.92;100227.59;5095089;28;20395;-75
2022/05/23 11:19:43;;;;;;;8.60;5.55;;;;;;;26.23;46.83;100224.88;5095327;28;20404;-74
2022/05/23 11:22:20;;;;;;;6.82;5.47;;;;;;;26.22;48.05;100221.31;5093319;28;20044;-75
2022/05/23 11:25:06;;;;;;;8.27;5.70;;;;;;;26.23;47.85;100224.88;5095051;28;20399;-75
2022/05/23 11:33:49;;;;;;;5.97;5.38;;;;;;;26.23;48.00;100206.72;5095191;28;20044;-75
2022/05/23 11:36:24;;;;;;;6.82;5.05;;;;;;;26.23;48.74;100214.03;5094070;28;20048;-81
2022/05/23 11:38:52;;;;;;;9.93;5.20;;;;;;;26.23;48.22;100211.31;5094633;28;20047;-76
2022/05/23 11:41:28;;;;;;;8.50;6.05;;;;;;;26.24;48.18;100207.56;5094715;28;20052;-75
2022/05/23 11:43:55;;;;;;;8.05;5.38;;;;;;;26.23;48.53;100204.00;5094141;28;20047;-74
2022/05/23 11:46:27;;;;;;;6.93;5.80;;;;;;;26.22;48.59;100196.91;5093983;28;20048;-75
2022/05/23 11:49:00;;;;;;;6.85;5.38;;;;;;;26.23;48.81;100203.16;5093465;28;20103;-75
2022/05/23 11:51:40;;;;;;;6.20;4.90;;;;;;;26.24;49.24;100199.41;5091881;28;20052;-74
2022/05/23 11:54:12;;;;;;;6.15;5.30;;;;;;;26.24;49.22;100189.41;5093927;28;20040;-75
2022/05/23 11:56:43;;;;;;;6.50;5.30;;;;;;;26.25;49.09;100185.66;5092706;28;20052;-75
2022/05/23 11:59:31;;;;;;;6.40;4.82;;;;;;;26.25;49.46;100182.97;5093905;28;20522;-75
2022/05/23 12:02:11;;;;;;;6.78;5.20;;;;;;;26.24;49.34;100178.53;5093094;28;20048;-75
2022/05/23 12:04:52;;;;;;;6.97;5.20;;;;;;;26.25;49.81;100172.09;5091641;28;20407;-75
2022/05/23 12:07:44;;;;;;;6.47;5.00;;;;;;;26.26;49.84;100173.78;5093179;28;20408;-75
2022/05/23 12:10:20;;;;;;;5.90;5.07;;;;;;;26.27;49.99;100166.47;5093421;28;20044;-75
2022/05/23 12:12:55;;;;;;;7.15;4.90;;;;;;;26.27;50.00;100166.47;5092492;28;20051;-75
2022/05/23 12:15:44;;;;;;;6.13;4.53;;;;;;;26.27;50.12;100167.31;5093792;28;20044;-75
2022/05/23 12:18:11;;;;;;;8.38;5.38;;;;;;;26.27;50.20;100167.31;5093813;28;20051;-75
2022/05/23 12:20:45;;;;;;;6.10;5.25;;;;;;;26.28;50.35;100165.44;5093332;28;20043;-75
2022/05/23 12:23:31;;;;;;;8.02;5.13;;;;;;;26.28;50.26;100160.00;5091468;28;20510;-75
2022/05/23 12:26:10;;;;;;;6.93;5.05;;;;;;;26.29;50.10;100165.25;5093017;28;20047;-75
2022/05/23 12:28:53;;;;;;;7.80;4.90;;;;;;;26.29;50.18;100158.97;5091431;28;20051;-75
2022/05/23 12:31:27;;;;;;;9.30;5.15;;;;;;;26.28;50.20;100150.00;5094243;28;20047;-75
2022/05/23 12:34:05;;;;;;;4.80;4.40;;;;;;;26.29;50.50;100151.69;5094016;28;20044;-75
2022/05/23 12:36:36;;;;;;;6.70;4.80;;;;;;;26.29;50.29;100148.09;5091328;28;20052;-75
2022/05/23 12:39:15;;;;;;;7.20;4.60;;;;;;;26.29;50.42;100138.13;5093678;28;20491;-75
2022/05/23 12:41:51;;;;;;;6.82;5.13;;;;;;;26.29;50.34;100140.84;5092126;28;20055;-75
2022/05/23 12:44:42;;;;;;;5.72;4.63;;;;;;;26.29;50.44;100135.41;5092902;28;20044;-75
2022/05/23 12:47:24;;;;;;;6.63;4.35;;;;;;;26.29;50.48;100131.81;5091337;28;20411;-75
2022/05/23 12:50:11;;;;;;;6.00;4.55;;;;;;;26.29;50.46;100129.97;5093929;28;20455;-75
2022/05/23 12:53:17;;;;;;;6.47;4.32;;;;;;;26.30;50.39;100119.97;5092557;28;20044;-75
2022/05/23 12:56:18;;;;;;;6.30;5.15;;;;;;;26.31;50.80;100127.91;5032025;28;20057;-75
2022/05/23 12:59:23;;;;;;;8.38;4.60;;;;;;;26.31;51.07;100125.19;5036193;28;20076;-75
2022/05/23 13:01:59;;;;;;;6.05;4.55;;;;;;;26.32;51.10;100123.31;4959085;28;20062;-75
2022/05/23 13:04:35;;;;;;;7.43;5.03;;;;;;;26.32;50.96;100123.31;4976496;28;20063;-75
2022/05/23 13:07:10;;;;;;;4.88;4.20;;;;;;;26.33;50.96;100130.41;4976201;28;20058;-74